createdAt,value
2019-02-14T00:00:00.978Z,1.30
2019-02-14T00:02:30.585Z,1.20
2019-02-14T00:04:59.561Z,1.10
2019-02-14T00:07:28.776Z,0.90
2019-02-14T00:09:57.651Z,0.80
2019-02-14T00:12:26.503Z,0.70
2019-02-14T00:14:55.698Z,0.70
2019-02-14T00:17:24.953Z,0.60
2019-02-14T00:19:53.890Z,0.60
2019-02-14T00:22:22.841Z,0.50
2019-02-14T00:24:51.782Z,0.50
2019-02-14T00:27:20.927Z,0.60
2019-02-14T00:29:49.857Z,0.60
2019-02-14T00:32:18.812Z,0.80
2019-02-14T00:34:47.677Z,1.00
2019-02-14T00:37:16.900Z,0.90
2019-02-14T00:39:45.837Z,0.80
2019-02-14T00:42:14.854Z,1.00
2019-02-14T00:44:43.796Z,1.00
2019-02-14T00:47:12.670Z,0.90
2019-02-14T00:49:41.614Z,0.70
2019-02-14T00:52:10.549Z,0.50
2019-02-14T00:54:39.409Z,0.50
2019-02-14T00:57:08.642Z,0.50
2019-02-14T00:59:37.510Z,0.80
2019-02-14T01:02:06.446Z,0.90
2019-02-14T01:04:35.311Z,0.80
2019-02-14T01:07:04.926Z,0.80
2019-02-14T01:09:33.862Z,0.70
2019-02-14T01:12:02.827Z,0.50
2019-02-14T01:14:31.918Z,0.50
2019-02-14T01:17:01.438Z,0.40
2019-02-14T01:19:30.606Z,0.50
2019-02-14T01:21:59.473Z,0.40
2019-02-14T01:24:28.413Z,0.40
2019-02-14T01:26:57.298Z,0.40
2019-02-14T01:29:26.226Z,0.30
2019-02-14T01:31:55.470Z,0.30
2019-02-14T01:34:24.406Z,0.30
2019-02-14T01:36:53.278Z,0.20
2019-02-14T01:39:22.450Z,0.20
2019-02-14T01:41:51.333Z,0.20
2019-02-14T01:44:20.542Z,0.30
2019-02-14T01:46:49.397Z,0.40
2019-02-14T01:49:18.270Z,0.40
2019-02-14T01:51:47.202Z,0.50
2019-02-14T01:54:16.070Z,0.50
2019-02-14T01:56:45.002Z,0.60
2019-02-14T01:59:13.954Z,0.60
2019-02-14T02:01:43.190Z,0.80
2019-02-14T02:04:12.028Z,0.80
2019-02-14T04:12:57.696Z,-0.30
2019-02-14T04:15:26.859Z,-0.30
2019-02-14T04:17:55.680Z,-0.30
2019-02-14T04:20:24.514Z,-0.40
2019-02-14T04:22:53.328Z,-0.40
2019-02-14T04:25:22.167Z,-0.50
2019-02-14T04:27:51.269Z,-0.40
2019-02-14T04:30:20.199Z,-0.30
2019-02-14T04:32:49.368Z,-0.40
2019-02-14T04:35:18.566Z,-0.30
2019-02-14T04:37:47.999Z,-0.20
2019-02-14T04:40:17.162Z,0.00
2019-02-14T04:42:46.382Z,-0.10
2019-02-14T04:45:15.373Z,0.00
2019-02-14T04:47:44.197Z,0.00
2019-02-14T04:50:13.227Z,0.00
2019-02-14T04:52:42.341Z,-0.10
2019-02-14T04:55:11.737Z,-0.20
2019-02-14T04:57:40.896Z,-0.30
2019-02-14T05:00:10.610Z,-0.30
2019-02-14T05:02:39.459Z,-0.10
2019-02-14T05:05:08.636Z,0.10
2019-02-14T05:07:37.642Z,0.10
2019-02-14T05:10:07.129Z,0.20
2019-02-14T05:12:36.329Z,0.40
2019-02-14T05:15:05.690Z,0.30
2019-02-14T05:17:34.534Z,0.10
2019-02-14T05:20:03.535Z,-0.10
2019-02-14T05:22:32.450Z,-0.20
2019-02-14T05:25:01.919Z,-0.30
2019-02-14T05:27:30.770Z,-0.30
2019-02-14T05:29:59.602Z,-0.40
2019-02-14T05:32:28.457Z,-0.50
2019-02-14T05:34:57.295Z,-0.30
2019-02-14T05:37:26.482Z,-0.30
2019-02-14T05:39:55.776Z,-0.50
2019-02-14T05:42:25.242Z,-0.50
2019-02-14T05:44:54.097Z,-0.60
2019-02-14T05:47:23.266Z,-0.60
2019-02-14T05:49:52.357Z,-0.60
2019-02-14T05:52:21.526Z,-0.50
2019-02-14T05:54:50.370Z,-0.20
2019-02-14T05:57:19.213Z,-0.40
2019-02-14T05:59:48.050Z,-0.20
2019-02-14T06:02:18.573Z,-0.10
2019-02-14T06:04:47.426Z,0.00
2019-02-14T06:07:16.604Z,-0.20
2019-02-14T06:09:45.433Z,-0.20
2019-02-14T06:12:14.282Z,-0.10
2019-02-14T06:14:43.427Z,-0.10
2019-02-14T06:17:12.623Z,0.00
2019-02-14T06:19:41.453Z,-0.10
2019-02-14T06:22:10.585Z,-0.20
2019-02-14T06:24:39.429Z,-0.30
2019-02-14T06:27:08.905Z,-0.50
2019-02-14T06:29:38.128Z,-0.60
2019-02-14T06:32:07.056Z,-0.70
2019-02-14T06:34:36.203Z,-0.70
2019-02-14T06:37:09.754Z,-0.80
2019-02-14T06:39:36.026Z,-0.80
2019-02-14T06:42:04.883Z,-0.70
2019-02-14T06:44:33.893Z,-0.80
2019-02-14T06:47:04.704Z,-0.80
2019-02-14T06:49:33.638Z,-0.70
2019-02-14T06:52:02.474Z,-0.70
2019-02-14T06:54:31.318Z,-0.60
2019-02-14T06:57:00.154Z,-0.60
2019-02-14T06:59:29.302Z,-0.60
2019-02-14T07:01:58.434Z,-0.50
2019-02-14T07:04:27.598Z,-0.50
2019-02-14T07:06:56.790Z,-0.40
2019-02-14T07:09:25.658Z,-0.40
2019-02-14T07:11:55.189Z,-0.40
2019-02-14T07:14:24.045Z,-0.40
2019-02-14T07:16:52.877Z,-0.50
2019-02-14T07:19:22.066Z,-0.40
2019-02-14T07:21:51.274Z,-0.20
2019-02-14T07:24:20.113Z,0.00
2019-02-14T07:26:49.023Z,-0.10
2019-02-14T07:29:18.188Z,-0.10
2019-02-14T07:31:47.447Z,-0.20
2019-02-14T07:34:16.653Z,-0.30
2019-02-14T07:36:45.493Z,-0.30
2019-02-14T07:39:15.048Z,-0.30
2019-02-14T07:41:44.242Z,-0.40
2019-02-14T07:44:13.438Z,-0.50
2019-02-14T07:46:42.732Z,-0.50
2019-02-14T07:49:11.935Z,-0.40
2019-02-14T07:51:40.859Z,-0.30
2019-02-14T07:54:10.026Z,-0.30
2019-02-14T07:56:38.938Z,-0.30
2019-02-14T07:59:08.163Z,-0.20
2019-02-14T08:01:37.003Z,-0.10
2019-02-14T08:04:06.206Z,0.20
2019-02-14T08:06:35.071Z,0.60
2019-02-14T08:09:05.525Z,0.60
2019-02-14T08:11:34.357Z,0.80
2019-02-14T08:14:03.918Z,0.80
2019-02-14T08:16:33.010Z,0.90
2019-02-14T08:19:01.935Z,1.00
2019-02-14T08:21:30.765Z,1.10
2019-02-14T08:24:00.198Z,1.20
2019-02-14T08:26:29.398Z,1.30
2019-02-14T08:28:58.251Z,1.50
2019-02-14T08:31:27.218Z,1.80
2019-02-14T08:33:56.374Z,2.00
2019-02-14T08:36:25.212Z,2.10
2019-02-14T08:38:54.364Z,2.10
2019-02-14T08:41:23.190Z,2.10
2019-02-14T08:43:52.040Z,2.20
2019-02-14T08:46:21.679Z,2.20
2019-02-14T08:48:50.846Z,2.30
2019-02-14T08:51:19.958Z,2.40
2019-02-14T08:53:48.814Z,2.50
2019-02-14T08:56:17.721Z,2.70
2019-02-14T08:58:46.583Z,2.90
2019-02-14T09:01:16.121Z,3.10
2019-02-14T09:03:45.630Z,3.30
2019-02-14T09:06:14.560Z,3.60
2019-02-14T09:08:43.718Z,3.80
2019-02-14T09:11:12.706Z,4.10
2019-02-14T09:13:41.907Z,4.30
2019-02-14T09:16:11.006Z,4.80
2019-02-14T09:18:41.098Z,5.30
2019-02-14T09:21:10.223Z,6.30
2019-02-14T09:23:39.626Z,7.40
2019-02-14T09:26:08.541Z,8.40
2019-02-14T09:28:37.718Z,9.30
2019-02-14T09:31:06.558Z,10.10
2019-02-14T09:33:36.131Z,11.00
2019-02-14T09:36:04.969Z,11.60
2019-02-14T09:38:33.857Z,11.80
2019-02-14T09:41:02.916Z,12.10
2019-02-14T09:43:32.202Z,12.50
2019-02-14T09:46:01.036Z,12.60
2019-02-14T09:48:29.950Z,13.10
2019-02-14T09:50:58.859Z,13.00
2019-02-14T09:53:27.715Z,13.10
2019-02-14T09:55:56.967Z,13.30
2019-02-14T09:58:26.199Z,13.50
2019-02-14T10:00:55.112Z,14.00
2019-02-14T10:03:23.966Z,14.40
2019-02-14T10:05:52.826Z,14.90
2019-02-14T10:08:22.022Z,14.80
2019-02-14T10:10:50.935Z,14.80
2019-02-14T10:13:20.110Z,15.00
2019-02-14T10:15:49.017Z,15.20
2019-02-14T10:18:17.987Z,15.60
2019-02-14T10:20:46.818Z,15.70
2019-02-14T10:23:15.658Z,16.00
2019-02-14T10:25:44.772Z,16.20
2019-02-14T10:28:13.605Z,16.30
2019-02-14T10:30:42.855Z,16.40
2019-02-14T10:33:11.774Z,16.60
2019-02-14T10:35:40.642Z,16.50
2019-02-14T10:38:09.843Z,16.60
2019-02-14T10:40:39.039Z,16.60
2019-02-14T10:43:08.235Z,16.50
2019-02-14T10:45:37.229Z,16.50
2019-02-14T10:48:06.071Z,16.80
2019-02-14T10:50:34.921Z,17.00
2019-02-14T10:53:03.998Z,17.00
2019-02-14T10:55:33.001Z,16.80
2019-02-14T10:58:01.910Z,17.20
2019-02-14T11:00:31.183Z,17.50
2019-02-14T11:03:00.490Z,17.30
2019-02-14T11:05:29.561Z,17.10
2019-02-14T11:07:58.686Z,17.30
2019-02-14T11:10:27.534Z,17.50
2019-02-14T11:12:56.529Z,17.40
2019-02-14T11:15:25.478Z,17.40
2019-02-14T11:17:54.701Z,17.20
2019-02-14T11:20:23.774Z,17.20
2019-02-14T11:22:53.174Z,17.40
2019-02-14T11:25:27.898Z,17.50
2019-02-14T11:27:57.492Z,17.60
2019-02-14T11:30:26.409Z,17.70
2019-02-14T11:32:55.582Z,17.40
2019-02-14T11:35:24.782Z,17.60
2019-02-14T11:37:54.284Z,17.70
2019-02-14T11:40:23.153Z,17.50
2019-02-14T11:42:52.314Z,17.50
2019-02-14T11:45:21.330Z,17.30
2019-02-14T11:47:50.235Z,16.90
2019-02-14T11:50:19.406Z,17.30
2019-02-14T11:52:48.240Z,16.90
2019-02-14T11:55:17.546Z,16.40
2019-02-14T11:57:46.656Z,16.20
2019-02-14T12:00:23.086Z,15.80
2019-02-14T12:02:55.456Z,15.70
2019-02-14T12:05:23.075Z,15.50
2019-02-14T12:07:52.142Z,15.60
2019-02-14T12:10:21.081Z,15.50
2019-02-14T12:12:50.649Z,15.20
2019-02-14T12:15:20.042Z,15.20
2019-02-14T12:17:49.280Z,15.30
2019-02-14T12:20:18.546Z,15.20
2019-02-14T12:22:47.519Z,15.00
2019-02-14T12:25:16.851Z,15.10
2019-02-14T12:27:45.679Z,15.00
2019-02-14T12:30:14.984Z,15.00
2019-02-14T12:32:43.820Z,14.80
2019-02-14T12:35:12.818Z,14.70
2019-02-14T12:37:42.016Z,14.40
2019-02-14T12:40:11.462Z,14.20
2019-02-14T12:42:40.712Z,14.00
2019-02-14T12:45:20.081Z,13.80
2019-02-14T12:47:42.122Z,13.80
2019-02-14T12:50:11.137Z,13.70
2019-02-14T12:52:40.037Z,13.50
2019-02-14T12:55:08.896Z,13.40
2019-02-14T12:57:37.815Z,13.40
2019-02-14T13:00:09.246Z,13.30
2019-02-14T13:02:38.422Z,13.30
2019-02-14T13:05:08.227Z,13.10
2019-02-14T13:07:37.069Z,12.90
2019-02-14T13:10:07.223Z,12.70
2019-02-14T13:12:36.054Z,12.70
2019-02-14T13:15:06.442Z,12.70
2019-02-14T13:17:35.282Z,12.70
2019-02-14T13:20:04.324Z,12.50
2019-02-14T13:22:33.615Z,12.40
2019-02-14T13:25:02.478Z,12.30
2019-02-14T13:27:31.397Z,12.30
2019-02-14T13:30:00.396Z,12.20
2019-02-14T13:32:29.374Z,12.10
2019-02-14T13:34:58.333Z,12.10
2019-02-14T13:37:27.178Z,12.00
2019-02-14T13:39:56.036Z,11.80
2019-02-14T13:42:24.890Z,11.80
2019-02-14T13:44:54.724Z,11.80
2019-02-14T13:47:23.561Z,11.70
2019-02-14T13:49:52.434Z,11.60
2019-02-14T13:52:22.021Z,11.60
2019-02-14T13:54:50.902Z,11.60
2019-02-14T13:57:20.108Z,11.60
2019-02-14T13:59:48.942Z,11.60
2019-02-14T14:02:18.261Z,11.50
2019-02-14T14:04:47.254Z,11.50
2019-02-14T14:07:16.186Z,11.50
2019-02-14T14:09:45.418Z,11.50
2019-02-14T14:12:14.275Z,11.50
2019-02-14T14:14:44.017Z,11.50
2019-02-14T14:17:13.998Z,11.50
2019-02-14T14:19:43.132Z,11.40
2019-02-14T14:22:12.054Z,11.40
2019-02-14T14:24:40.887Z,11.40
2019-02-14T14:27:10.533Z,11.40
2019-02-14T14:29:39.714Z,11.40
2019-02-14T14:32:08.914Z,11.40
2019-02-14T14:34:37.758Z,11.40
2019-02-14T14:37:07.303Z,11.40
2019-02-14T14:39:36.363Z,11.40
2019-02-14T14:42:07.385Z,11.40
2019-02-14T14:44:54.532Z,11.40
2019-02-14T14:47:24.983Z,11.40
2019-02-14T14:49:53.903Z,11.40
2019-02-14T14:52:23.965Z,11.40
2019-02-14T14:54:52.826Z,11.40
2019-02-14T14:57:22.126Z,11.40
2019-02-14T14:59:50.968Z,11.40
2019-02-14T15:02:20.192Z,11.40
2019-02-14T15:04:49.021Z,11.30
2019-02-14T15:07:17.890Z,11.30
2019-02-14T15:09:47.027Z,11.30
2019-02-14T15:12:16.390Z,11.40
2019-02-14T15:14:45.559Z,11.30
2019-02-14T15:17:14.705Z,11.30
2019-02-14T15:19:43.575Z,11.30
2019-02-14T15:22:12.876Z,11.30
2019-02-14T15:24:42.049Z,11.30
2019-02-14T15:27:10.910Z,11.20
2019-02-14T15:29:40.034Z,11.20
2019-02-14T15:32:08.902Z,11.30
2019-02-14T15:34:37.816Z,11.20
2019-02-14T15:37:06.665Z,11.10
2019-02-14T15:39:36.350Z,11.10
2019-02-14T15:42:05.624Z,11.10
2019-02-14T15:44:34.465Z,11.20
2019-02-14T15:47:03.314Z,11.20
2019-02-14T15:49:32.170Z,11.10
2019-02-14T15:52:03.222Z,11.10
2019-02-14T15:54:33.097Z,11.00
2019-02-14T15:57:03.515Z,10.70
2019-02-14T15:59:32.635Z,10.60
2019-02-14T16:02:03.790Z,10.60
2019-02-14T16:04:32.616Z,10.50
2019-02-14T16:07:01.557Z,10.30
2019-02-14T16:09:30.687Z,10.00
2019-02-14T16:11:59.537Z,9.80
2019-02-14T16:14:28.382Z,9.60
2019-02-14T16:16:57.268Z,9.40
2019-02-14T16:19:26.128Z,9.30
2019-02-14T16:21:56.111Z,9.20
2019-02-14T16:24:26.089Z,9.10
2019-02-14T16:26:54.961Z,9.10
2019-02-14T16:29:25.097Z,9.10
2019-02-14T16:31:54.946Z,9.10
2019-02-14T16:34:23.954Z,9.10
2019-02-14T16:36:53.115Z,9.10
2019-02-14T16:39:23.101Z,9.10
2019-02-14T16:41:53.029Z,9.00
2019-02-14T16:44:21.886Z,9.00
2019-02-14T16:46:51.023Z,8.90
2019-02-14T16:49:20.419Z,8.80
2019-02-14T16:51:49.515Z,8.70
2019-02-14T16:54:18.455Z,8.60
2019-02-14T16:56:47.731Z,8.70
2019-02-14T16:59:16.659Z,8.50
2019-02-14T17:01:45.501Z,8.30
2019-02-14T17:04:14.355Z,8.20
2019-02-14T17:06:43.511Z,8.10
2019-02-14T17:09:12.358Z,8.10
2019-02-14T17:11:41.974Z,8.10
2019-02-14T17:14:11.383Z,8.10
2019-02-14T17:16:40.223Z,7.80
2019-02-14T17:19:09.197Z,7.80
2019-02-14T17:21:38.775Z,7.60
2019-02-14T17:24:07.788Z,7.60
2019-02-14T17:26:36.788Z,7.50
2019-02-14T17:29:05.726Z,7.50
2019-02-14T17:31:35.254Z,7.40
2019-02-14T17:34:04.275Z,7.20
2019-02-14T17:36:33.102Z,7.10
2019-02-14T17:39:02.114Z,7.10
2019-02-14T17:41:31.082Z,7.00
2019-02-14T17:44:00.532Z,7.00
2019-02-14T17:46:30.021Z,6.90
2019-02-14T17:48:58.966Z,6.90
2019-02-14T17:51:27.789Z,6.70
2019-02-14T17:53:56.713Z,6.80
2019-02-14T17:56:25.851Z,6.60
2019-02-14T17:58:54.697Z,6.60
2019-02-14T18:01:23.619Z,6.50
2019-02-14T18:03:52.782Z,6.40
2019-02-14T18:06:21.978Z,6.20
2019-02-14T18:08:50.898Z,6.20
2019-02-14T18:11:20.077Z,6.20
2019-02-14T18:13:49.327Z,6.20
2019-02-14T18:16:18.678Z,5.90
2019-02-14T18:18:47.515Z,6.00
2019-02-14T18:21:16.375Z,5.90
2019-02-14T18:23:45.214Z,5.80
2019-02-14T18:26:14.852Z,5.60
2019-02-14T18:28:44.238Z,5.60
2019-02-14T18:31:13.171Z,5.70
2019-02-14T18:33:42.010Z,5.70
2019-02-14T18:36:10.870Z,5.70
2019-02-14T18:38:39.764Z,5.60
2019-02-14T18:41:08.701Z,5.60
2019-02-14T18:43:37.641Z,5.50
2019-02-14T18:46:06.494Z,5.40
2019-02-14T18:48:35.450Z,5.60
2019-02-14T18:51:04.302Z,5.30
2019-02-14T18:53:33.137Z,5.40
2019-02-14T18:56:02.362Z,5.20
2019-02-14T18:58:31.590Z,5.10
2019-02-14T19:01:00.786Z,4.90
2019-02-14T19:03:29.667Z,4.90
2019-02-14T19:05:59.052Z,4.80
2019-02-14T19:08:27.933Z,4.80
2019-02-14T19:10:57.143Z,4.80
2019-02-14T19:13:26.006Z,4.70
2019-02-14T19:15:54.986Z,4.90
2019-02-14T19:18:24.839Z,4.90
2019-02-14T19:20:53.783Z,4.80
2019-02-14T19:23:24.318Z,4.80
2019-02-14T19:25:53.521Z,4.80
2019-02-14T19:28:22.758Z,4.90
2019-02-14T19:30:52.282Z,4.80
2019-02-14T19:33:21.188Z,4.60
2019-02-14T19:35:50.030Z,4.40
2019-02-14T19:38:19.189Z,4.50
2019-02-14T19:40:48.050Z,4.50
2019-02-14T19:43:16.889Z,4.60
2019-02-14T19:45:45.721Z,4.50
2019-02-14T19:48:15.217Z,4.60
2019-02-14T19:50:44.345Z,4.70
2019-02-14T19:53:13.202Z,4.60
2019-02-14T19:55:42.408Z,4.50
2019-02-14T19:58:11.601Z,4.40
2019-02-14T20:00:40.439Z,4.50
2019-02-14T20:03:09.284Z,4.50
2019-02-14T20:05:38.216Z,4.30
2019-02-14T20:08:07.282Z,4.20
2019-02-14T20:10:36.585Z,4.20
2019-02-14T20:13:05.873Z,4.00
2019-02-14T20:15:37.111Z,4.10
2019-02-14T20:18:05.347Z,4.20
2019-02-14T20:20:34.517Z,4.20
2019-02-14T20:23:03.790Z,4.10
2019-02-14T20:25:32.625Z,4.00
2019-02-14T20:28:01.770Z,3.90
2019-02-14T20:30:30.873Z,3.80
2019-02-14T20:33:04.916Z,3.60
2019-02-14T20:35:30.916Z,3.80
2019-02-14T20:37:59.903Z,3.70
2019-02-14T20:40:29.101Z,3.60
2019-02-14T20:42:58.407Z,3.40
2019-02-14T20:45:27.321Z,3.40
2019-02-14T20:47:57.208Z,3.40
2019-02-14T20:50:26.342Z,3.40
2019-02-14T20:52:55.207Z,3.30
2019-02-14T20:55:24.298Z,3.10
2019-02-14T20:57:53.245Z,3.00
2019-02-14T21:00:28.622Z,3.10
2019-02-14T21:02:57.617Z,3.00
2019-02-14T21:05:26.526Z,2.90
2019-02-14T21:07:55.763Z,2.80
2019-02-14T21:10:24.666Z,3.10
2019-02-14T21:12:53.659Z,3.00
2019-02-14T21:15:22.562Z,2.90
2019-02-14T21:17:51.783Z,3.00
2019-02-14T21:20:21.182Z,2.80
2019-02-14T21:22:50.092Z,2.70
2019-02-14T21:25:23.030Z,2.60
2019-02-14T21:27:50.327Z,2.70
2019-02-14T21:30:19.480Z,3.00
2019-02-14T21:32:48.538Z,3.10
2019-02-14T21:35:17.458Z,3.30
2019-02-14T21:37:46.610Z,3.20
2019-02-14T21:40:15.829Z,3.10
2019-02-14T21:42:45.095Z,3.00
2019-02-14T21:45:14.103Z,3.20
2019-02-14T21:47:43.351Z,3.20
2019-02-14T21:50:12.489Z,3.00
2019-02-14T21:52:41.561Z,2.90
2019-02-14T21:55:10.862Z,2.90
2019-02-14T21:57:40.264Z,2.90
2019-02-14T22:00:12.632Z,2.70
2019-02-14T22:02:42.161Z,2.60
2019-02-14T22:05:11.647Z,2.60
2019-02-14T22:07:40.978Z,2.60
2019-02-14T22:10:10.849Z,2.70
2019-02-14T22:12:42.186Z,2.80
2019-02-14T22:15:12.577Z,2.80
2019-02-14T22:17:41.656Z,2.70
2019-02-14T22:20:10.825Z,2.70
2019-02-14T22:22:40.787Z,2.60
2019-02-14T22:25:09.856Z,2.60
2019-02-14T22:27:39.085Z,2.40
2019-02-14T22:30:12.528Z,2.40
2019-02-14T22:32:41.510Z,2.20
2019-02-14T22:35:10.806Z,2.10
2019-02-14T22:37:39.974Z,2.10
2019-02-14T22:40:09.658Z,2.40
2019-02-14T22:42:46.742Z,2.50
2019-02-14T22:45:10.215Z,2.70
2019-02-14T22:47:39.905Z,2.80
2019-02-14T22:50:09.524Z,2.70
2019-02-14T22:52:38.872Z,2.60
2019-02-14T22:55:08.998Z,2.50
2019-02-14T22:57:37.914Z,2.50
2019-02-14T23:00:15.635Z,2.60
2019-02-14T23:02:44.937Z,2.40
2019-02-14T23:05:14.163Z,2.40
2019-02-14T23:07:43.015Z,2.40
2019-02-14T23:10:12.242Z,2.40
2019-02-14T23:12:41.078Z,2.20
2019-02-14T23:15:10.073Z,2.30
2019-02-14T23:17:39.045Z,2.10
2019-02-14T23:20:08.065Z,1.90
2019-02-14T23:22:36.895Z,1.80
2019-02-14T23:25:05.821Z,1.70
2019-02-14T23:27:34.725Z,1.80
2019-02-14T23:30:04.581Z,2.00
2019-02-14T23:32:33.583Z,1.90
2019-02-14T23:35:02.544Z,1.80
2019-02-14T23:37:31.973Z,1.70
2019-02-14T23:40:00.854Z,1.60
2019-02-14T23:42:29.974Z,1.50
2019-02-14T23:44:58.830Z,1.70
2019-02-14T23:47:27.742Z,1.80
2019-02-14T23:49:56.989Z,1.60
2019-02-14T23:52:25.820Z,1.50
2019-02-14T23:54:54.670Z,1.50
2019-02-14T23:57:23.510Z,1.40
2019-02-14T23:59:52.369Z,1.60
